EST,Max TemperatureF,Mean TemperatureF,Min TemperatureF,Max Dew PointF,MeanDew PointF,Min DewpointF,Max Humidity, Mean Humidity, Min Humidity, Max Sea Level PressureIn, Mean Sea Level PressureIn, Min Sea Level PressureIn, Max VisibilityMiles, Mean VisibilityMiles, Min VisibilityMiles, Max Wind SpeedMPH, Mean Wind SpeedMPH, Max Gust SpeedMPH,PrecipitationIn, CloudCover, Events, WindDirDegrees
2013-1-1,78,68,57,61,58,55,93,74,50,30.20,30.11,30.04,10,10,6,14,4,18,0.00,3,,171
2013-1-2,79,69,59,67,62,57,97,86,57,30.09,30.05,29.99,10,8,0,13,2,,0.00,3,Fog,228
2013-1-3,81,70,59,68,62,58,100,89,47,30.13,30.08,30.03,10,4,0,16,2,18,0.00,3,Fog,163
2013-1-4,73,68,62,67,64,61,96,89,78,30.25,30.19,30.11,10,9,2,12,6,,0.12,7,Rain,38
2013-1-5,78,70,62,65,62,59,96,83,60,30.27,30.22,30.16,10,8,2,14,8,,0.00,5,,58
2013-1-6,81,72,64,69,66,63,100,90,62,30.18,30.13,30.05,10,6,0,8,5,17,0.00,5,Fog,73
2013-1-7,75,70,64,67,66,63,96,88,67,30.18,30.12,30.08,10,9,1,13,7,,0.18,6,Rain,56
2013-1-8,84,73,62,70,65,62,100,87,51,30.21,30.14,30.10,10,7,0,15,6,17,0.00,5,Fog,73
2013-1-9,84,76,69,69,66,61,96,77,46,30.26,30.21,30.16,10,9,5,15,9,22,0.00,3,,104
2013-1-10,82,73,64,68,63,59,97,73,45,30.28,30.24,30.17,10,9,6,16,9,26,0.00,2,,99
2013-1-11,82,72,62,66,62,58,97,76,44,30.25,30.19,30.12,10,10,5,12,6,16,0.00,1,,97
2013-1-12,82,73,64,67,64,60,93,75,47,30.18,30.12,30.06,10,10,10,14,7,21,0.00,2,,109
2013-1-13,82,72,63,66,63,61,93,76,49,30.13,30.09,30.06,10,10,10,12,6,17,0.00,1,,113
2013-1-14,80,70,61,62,60,59,93,74,48,30.18,30.14,30.11,10,10,10,10,4,,0.00,2,,117
2013-1-15,80,70,59,65,61,57,100,81,50,30.15,30.11,30.05,10,8,0,9,2,20,0.00,3,Fog,128
2013-1-16,81,70,60,65,61,58,100,85,47,30.11,30.06,30.01,10,6,0,10,2,,0.00,2,Fog,160
2013-1-17,80,70,60,69,60,48,93,74,60,30.14,30.06,30.00,10,10,10,20,7,26,0.00,5,,289
2013-1-18,68,56,45,56,46,35,90,66,52,30.30,30.20,30.13,10,10,8,13,9,21,0.00,4,,23
2013-1-19,73,65,57,63,60,55,96,83,61,30.17,30.14,30.10,10,10,10,14,6,,0.00,7,,47
2013-1-20,79,72,64,64,63,60,96,82,54,30.17,30.10,30.03,10,9,2,9,5,,0.00,7,,45
2013-1-21,73,68,62,64,62,59,94,84,71,30.10,30.05,30.00,10,10,9,12,5,17,0.00,4,,305
2013-1-22,71,64,57,57,48,40,87,62,42,30.26,30.15,30.06,10,10,10,15,8,,0.00,1,,19
2013-1-23,75,64,53,46,40,36,64,48,25,30.34,30.27,30.24,10,10,10,12,8,,0.00,0,,36
2013-1-24,75,62,50,49,43,31,83,56,21,30.32,30.27,30.22,10,10,10,8,4,,0.00,0,,23
2013-1-25,77,62,48,51,48,45,86,62,35,30.31,30.25,30.19,10,10,6,8,2,,0.00,0,,83
2013-1-26,78,65,52,52,47,42,84,58,28,30.28,30.22,30.17,10,10,9,9,3,,0.00,0,,22
2013-1-27,80,67,54,58,53,50,86,64,38,30.28,30.24,30.20,10,10,10,13,6,16,0.00,3,,66
2013-1-28,82,72,61,61,58,55,90,66,45,30.31,30.25,30.19,10,10,9,15,8,23,0.00,1,,96
2013-1-29,82,72,61,66,63,59,93,75,47,30.22,30.16,30.10,10,9,5,14,6,21,0.00,2,,117
2013-1-30,82,73,64,66,63,60,93,74,47,30.10,30.02,29.97,10,10,10,18,9,25,0.00,1,,166
2013-1-31,71,61,50,68,54,33,94,76,35,30.22,30.08,29.94,10,8,2,13,8,26,0.16,5,Rain,355